sensor_id;sensor_type;location;lat;lon;timestamp;P1;durP1;ratioP1;P2;durP2;ratioP2
75932;SDS011;64803;52.356;5.310;2022-12-07T00:01:13;4.63;;;0.90;;
75932;SDS011;64803;52.356;5.310;2022-12-07T00:03:41;3.72;;;0.98;;
75932;SDS011;64803;52.356;5.310;2022-12-07T00:08:35;6.75;;;1.33;;
75932;SDS011;64803;52.356;5.310;2022-12-07T00:11:02;2.97;;;1.02;;
75932;SDS011;64803;52.356;5.310;2022-12-07T00:13:30;6.22;;;0.98;;
75932;SDS011;64803;52.356;5.310;2022-12-07T00:16:04;3.47;;;1.00;;
75932;SDS011;64803;52.356;5.310;2022-12-07T00:18:41;8.55;;;1.20;;
75932;SDS011;64803;52.356;5.310;2022-12-07T00:21:15;8.18;;;1.77;;
75932;SDS011;64803;52.356;5.310;2022-12-07T00:23:43;8.85;;;1.45;;
75932;SDS011;64803;52.356;5.310;2022-12-07T00:26:11;9.50;;;1.90;;
75932;SDS011;64803;52.356;5.310;2022-12-07T00:28:39;7.00;;;1.30;;
75932;SDS011;64803;52.356;5.310;2022-12-07T00:31:09;5.30;;;1.20;;
75932;SDS011;64803;52.356;5.310;2022-12-07T00:33:36;6.70;;;1.35;;
75932;SDS011;64803;52.356;5.310;2022-12-07T00:36:05;9.18;;;1.60;;
75932;SDS011;64803;52.356;5.310;2022-12-07T00:38:33;5.68;;;1.23;;
75932;SDS011;64803;52.356;5.310;2022-12-07T00:41:02;4.95;;;1.20;;
75932;SDS011;64803;52.356;5.310;2022-12-07T00:43:30;9.48;;;1.42;;
75932;SDS011;64803;52.356;5.310;2022-12-07T00:45:57;3.90;;;0.90;;
75932;SDS011;64803;52.356;5.310;2022-12-07T00:48:23;11.00;;;1.48;;
75932;SDS011;64803;52.356;5.310;2022-12-07T00:50:50;5.30;;;0.82;;
75932;SDS011;64803;52.356;5.310;2022-12-07T00:53:16;3.97;;;1.00;;
75932;SDS011;64803;52.356;5.310;2022-12-07T00:55:43;6.15;;;0.98;;
75932;SDS011;64803;52.356;5.310;2022-12-07T00:58:09;4.15;;;0.75;;
75932;SDS011;64803;52.356;5.310;2022-12-07T01:00:36;8.35;;;1.30;;
75932;SDS011;64803;52.356;5.310;2022-12-07T01:03:04;6.32;;;0.80;;
75932;SDS011;64803;52.356;5.310;2022-12-07T01:05:31;6.88;;;1.02;;
75932;SDS011;64803;52.356;5.310;2022-12-07T01:07:57;6.15;;;1.17;;
75932;SDS011;64803;52.356;5.310;2022-12-07T01:10:23;4.28;;;0.75;;
75932;SDS011;64803;52.356;5.310;2022-12-07T01:12:49;5.22;;;0.65;;
75932;SDS011;64803;52.356;5.310;2022-12-07T01:15:15;4.22;;;0.90;;
75932;SDS011;64803;52.356;5.310;2022-12-07T01:17:41;2.70;;;0.65;;
75932;SDS011;64803;52.356;5.310;2022-12-07T01:20:07;6.13;;;1.25;;
75932;SDS011;64803;52.356;5.310;2022-12-07T01:22:37;5.50;;;0.82;;
75932;SDS011;64803;52.356;5.310;2022-12-07T01:25:04;5.13;;;0.60;;
75932;SDS011;64803;52.356;5.310;2022-12-07T01:27:32;5.57;;;0.77;;
75932;SDS011;64803;52.356;5.310;2022-12-07T01:29:59;3.40;;;0.50;;
75932;SDS011;64803;52.356;5.310;2022-12-07T01:32:25;7.13;;;0.70;;
75932;SDS011;64803;52.356;5.310;2022-12-07T01:34:51;4.90;;;0.98;;
75932;SDS011;64803;52.356;5.310;2022-12-07T01:37:17;5.70;;;0.85;;
75932;SDS011;64803;52.356;5.310;2022-12-07T01:39:43;16.63;;;1.30;;
75932;SDS011;64803;52.356;5.310;2022-12-07T01:42:10;5.20;;;0.40;;
75932;SDS011;64803;52.356;5.310;2022-12-07T01:47:57;4.20;;;0.68;;
75932;SDS011;64803;52.356;5.310;2022-12-07T01:50:24;3.60;;;0.57;;
75932;SDS011;64803;52.356;5.310;2022-12-07T01:52:52;7.93;;;0.98;;
75932;SDS011;64803;52.356;5.310;2022-12-07T01:55:21;10.05;;;0.88;;
75932;SDS011;64803;52.356;5.310;2022-12-07T01:57:49;5.13;;;0.60;;
75932;SDS011;64803;52.356;5.310;2022-12-07T02:00:17;3.25;;;0.73;;
75932;SDS011;64803;52.356;5.310;2022-12-07T02:02:54;2.35;;;0.50;;
75932;SDS011;64803;52.356;5.310;2022-12-07T02:05:24;5.85;;;0.70;;
75932;SDS011;64803;52.356;5.310;2022-12-07T02:07:51;4.50;;;0.70;;
75932;SDS011;64803;52.356;5.310;2022-12-07T02:10:25;6.45;;;1.00;;
75932;SDS011;64803;52.356;5.310;2022-12-07T02:20:59;5.97;;;1.23;;
75932;SDS011;64803;52.356;5.310;2022-12-07T02:29:25;1.80;;;0.40;;
75932;SDS011;64803;52.356;5.310;2022-12-07T02:34:34;1.35;;;0.30;;
75932;SDS011;64803;52.356;5.310;2022-12-07T02:37:24;0.80;;;0.05;;
75932;SDS011;64803;52.356;5.310;2022-12-07T02:40:17;3.35;;;0.57;;
75932;SDS011;64803;52.356;5.310;2022-12-07T02:42:50;2.75;;;0.60;;
75932;SDS011;64803;52.356;5.310;2022-12-07T02:45:23;3.75;;;0.70;;
75932;SDS011;64803;52.356;5.310;2022-12-07T02:47:53;3.58;;;0.60;;
75932;SDS011;64803;52.356;5.310;2022-12-07T02:50:24;0.98;;;0.10;;
75932;SDS011;64803;52.356;5.310;2022-12-07T02:52:50;6.72;;;0.52;;
75932;SDS011;64803;52.356;5.310;2022-12-07T02:55:17;1.42;;;0.45;;
75932;SDS011;64803;52.356;5.310;2022-12-07T03:00:48;3.63;;;0.55;;
75932;SDS011;64803;52.356;5.310;2022-12-07T03:03:24;4.10;;;1.52;;
75932;SDS011;64803;52.356;5.310;2022-12-07T03:11:22;6.38;;;0.88;;
75932;SDS011;64803;52.356;5.310;2022-12-07T03:13:59;6.05;;;0.80;;
75932;SDS011;64803;52.356;5.310;2022-12-07T03:16:33;2.28;;;0.43;;
75932;SDS011;64803;52.356;5.310;2022-12-07T03:19:09;4.45;;;0.47;;
75932;SDS011;64803;52.356;5.310;2022-12-07T03:21:39;2.80;;;0.50;;
75932;SDS011;64803;52.356;5.310;2022-12-07T03:24:21;6.05;;;0.65;;
75932;SDS011;64803;52.356;5.310;2022-12-07T03:26:52;7.10;;;1.00;;
75932;SDS011;64803;52.356;5.310;2022-12-07T03:29:27;0.93;;;0.20;;
75932;SDS011;64803;52.356;5.310;2022-12-07T03:32:30;2.97;;;0.52;;
75932;SDS011;64803;52.356;5.310;2022-12-07T03:35:00;8.75;;;0.77;;
75932;SDS011;64803;52.356;5.310;2022-12-07T03:37:33;4.45;;;0.82;;
75932;SDS011;64803;52.356;5.310;2022-12-07T03:40:08;3.88;;;0.50;;
75932;SDS011;64803;52.356;5.310;2022-12-07T03:42:44;4.68;;;0.70;;
75932;SDS011;64803;52.356;5.310;2022-12-07T03:45:11;11.57;;;0.90;;
75932;SDS011;64803;52.356;5.310;2022-12-07T03:47:42;4.60;;;0.50;;
75932;SDS011;64803;52.356;5.310;2022-12-07T03:50:23;5.78;;;0.63;;
75932;SDS011;64803;52.356;5.310;2022-12-07T03:52:58;9.35;;;1.25;;
75932;SDS011;64803;52.356;5.310;2022-12-07T03:55:45;2.03;;;0.57;;
75932;SDS011;64803;52.356;5.310;2022-12-07T03:58:17;2.60;;;0.50;;
75932;SDS011;64803;52.356;5.310;2022-12-07T04:00:46;4.28;;;0.70;;
75932;SDS011;64803;52.356;5.310;2022-12-07T04:03:12;2.60;;;0.90;;
75932;SDS011;64803;52.356;5.310;2022-12-07T04:05:38;8.15;;;0.82;;
75932;SDS011;64803;52.356;5.310;2022-12-07T04:08:05;7.75;;;0.77;;
75932;SDS011;64803;52.356;5.310;2022-12-07T04:10:31;9.35;;;0.80;;
75932;SDS011;64803;52.356;5.310;2022-12-07T04:12:57;5.90;;;0.70;;
75932;SDS011;64803;52.356;5.310;2022-12-07T04:15:23;4.43;;;0.63;;
75932;SDS011;64803;52.356;5.310;2022-12-07T04:17:49;8.57;;;0.73;;
75932;SDS011;64803;52.356;5.310;2022-12-07T04:20:15;5.15;;;1.10;;
75932;SDS011;64803;52.356;5.310;2022-12-07T04:22:41;6.03;;;0.52;;
75932;SDS011;64803;52.356;5.310;2022-12-07T04:25:07;3.50;;;0.65;;
75932;SDS011;64803;52.356;5.310;2022-12-07T04:27:33;6.82;;;1.05;;
75932;SDS011;64803;52.356;5.310;2022-12-07T04:29:59;7.45;;;0.60;;
75932;SDS011;64803;52.356;5.310;2022-12-07T04:32:25;3.58;;;0.75;;
75932;SDS011;64803;52.356;5.310;2022-12-07T04:34:51;3.60;;;0.60;;
75932;SDS011;64803;52.356;5.310;2022-12-07T04:37:17;2.38;;;0.20;;
75932;SDS011;64803;52.356;5.310;2022-12-07T04:39:43;10.82;;;0.73;;
75932;SDS011;64803;52.356;5.310;2022-12-07T04:42:10;5.32;;;0.43;;
75932;SDS011;64803;52.356;5.310;2022-12-07T04:47:04;0.70;;;0.20;;
75932;SDS011;64803;52.356;5.310;2022-12-07T04:49:30;1.73;;;0.47;;
75932;SDS011;64803;52.356;5.310;2022-12-07T04:51:56;3.88;;;0.52;;
75932;SDS011;64803;52.356;5.310;2022-12-07T04:54:22;4.32;;;0.50;;
75932;SDS011;64803;52.356;5.310;2022-12-07T04:56:48;1.10;;;0.35;;
75932;SDS011;64803;52.356;5.310;2022-12-07T04:59:15;6.10;;;0.95;;
75932;SDS011;64803;52.356;5.310;2022-12-07T05:01:41;3.63;;;0.60;;
75932;SDS011;64803;52.356;5.310;2022-12-07T05:04:08;6.35;;;0.85;;
75932;SDS011;64803;52.356;5.310;2022-12-07T05:06:34;11.27;;;1.00;;
75932;SDS011;64803;52.356;5.310;2022-12-07T05:09:00;4.25;;;0.55;;
75932;SDS011;64803;52.356;5.310;2022-12-07T05:11:26;4.22;;;0.90;;
75932;SDS011;64803;52.356;5.310;2022-12-07T05:14:12;4.68;;;0.95;;
75932;SDS011;64803;52.356;5.310;2022-12-07T05:16:43;6.78;;;0.70;;
75932;SDS011;64803;52.356;5.310;2022-12-07T05:19:10;0.85;;;0.20;;
75932;SDS011;64803;52.356;5.310;2022-12-07T05:21:36;6.90;;;0.90;;
75932;SDS011;64803;52.356;5.310;2022-12-07T05:24:03;2.28;;;0.60;;
75932;SDS011;64803;52.356;5.310;2022-12-07T05:26:29;7.68;;;0.63;;
75932;SDS011;64803;52.356;5.310;2022-12-07T05:28:56;5.47;;;0.60;;
75932;SDS011;64803;52.356;5.310;2022-12-07T05:31:22;2.30;;;0.80;;
75932;SDS011;64803;52.356;5.310;2022-12-07T05:33:49;3.95;;;1.02;;
75932;SDS011;64803;52.356;5.310;2022-12-07T05:36:15;7.18;;;0.85;;
75932;SDS011;64803;52.356;5.310;2022-12-07T05:38:41;4.03;;;0.85;;
75932;SDS011;64803;52.356;5.310;2022-12-07T05:41:08;5.28;;;0.28;;
75932;SDS011;64803;52.356;5.310;2022-12-07T05:43:57;6.57;;;1.02;;
75932;SDS011;64803;52.356;5.310;2022-12-07T05:46:23;7.32;;;1.27;;
75932;SDS011;64803;52.356;5.310;2022-12-07T05:48:49;3.17;;;0.38;;
75932;SDS011;64803;52.356;5.310;2022-12-07T05:51:16;6.45;;;1.27;;
75932;SDS011;64803;52.356;5.310;2022-12-07T05:53:42;7.60;;;1.10;;
75932;SDS011;64803;52.356;5.310;2022-12-07T05:56:08;3.40;;;0.73;;
75932;SDS011;64803;52.356;5.310;2022-12-07T05:58:34;3.22;;;0.60;;
75932;SDS011;64803;52.356;5.310;2022-12-07T06:01:18;9.18;;;1.25;;
75932;SDS011;64803;52.356;5.310;2022-12-07T06:03:44;5.13;;;0.68;;
75932;SDS011;64803;52.356;5.310;2022-12-07T06:06:11;8.43;;;1.15;;
75932;SDS011;64803;52.356;5.310;2022-12-07T06:08:37;4.57;;;0.47;;
75932;SDS011;64803;52.356;5.310;2022-12-07T06:11:03;2.05;;;0.60;;
75932;SDS011;64803;52.356;5.310;2022-12-07T06:13:48;7.57;;;0.50;;
75932;SDS011;64803;52.356;5.310;2022-12-07T06:16:14;3.72;;;0.63;;
75932;SDS011;64803;52.356;5.310;2022-12-07T06:18:40;3.20;;;0.38;;
75932;SDS011;64803;52.356;5.310;2022-12-07T06:21:06;10.40;;;1.13;;
75932;SDS011;64803;52.356;5.310;2022-12-07T06:23:32;9.10;;;0.73;;
75932;SDS011;64803;52.356;5.310;2022-12-07T06:25:58;4.03;;;0.55;;
75932;SDS011;64803;52.356;5.310;2022-12-07T06:28:24;4.82;;;0.77;;
75932;SDS011;64803;52.356;5.310;2022-12-07T06:30:57;8.45;;;0.95;;
75932;SDS011;64803;52.356;5.310;2022-12-07T06:33:24;2.47;;;0.70;;
75932;SDS011;64803;52.356;5.310;2022-12-07T06:35:51;2.38;;;0.55;;
75932;SDS011;64803;52.356;5.310;2022-12-07T06:38:17;7.00;;;0.80;;
75932;SDS011;64803;52.356;5.310;2022-12-07T06:40:43;5.35;;;1.02;;
75932;SDS011;64803;52.356;5.310;2022-12-07T06:43:09;6.82;;;0.65;;
75932;SDS011;64803;52.356;5.310;2022-12-07T06:45:35;8.13;;;1.08;;
75932;SDS011;64803;52.356;5.310;2022-12-07T06:48:01;9.73;;;1.42;;
75932;SDS011;64803;52.356;5.310;2022-12-07T06:50:27;5.07;;;1.25;;
75932;SDS011;64803;52.356;5.310;2022-12-07T06:52:53;9.25;;;1.17;;
75932;SDS011;64803;52.356;5.310;2022-12-07T06:55:19;7.53;;;0.93;;
75932;SDS011;64803;52.356;5.310;2022-12-07T06:57:45;3.33;;;0.82;;
75932;SDS011;64803;52.356;5.310;2022-12-07T07:00:11;5.95;;;0.82;;
75932;SDS011;64803;52.356;5.310;2022-12-07T07:02:37;8.98;;;0.80;;
75932;SDS011;64803;52.356;5.310;2022-12-07T07:05:03;9.45;;;0.80;;
75932;SDS011;64803;52.356;5.310;2022-12-07T07:07:29;4.65;;;0.65;;
75932;SDS011;64803;52.356;5.310;2022-12-07T07:09:55;3.17;;;0.47;;
75932;SDS011;64803;52.356;5.310;2022-12-07T07:12:21;4.35;;;0.93;;
75932;SDS011;64803;52.356;5.310;2022-12-07T07:14:47;1.48;;;0.35;;
75932;SDS011;64803;52.356;5.310;2022-12-07T07:17:13;4.72;;;0.70;;
75932;SDS011;64803;52.356;5.310;2022-12-07T07:19:39;3.38;;;0.43;;
75932;SDS011;64803;52.356;5.310;2022-12-07T07:22:05;3.97;;;0.32;;
75932;SDS011;64803;52.356;5.310;2022-12-07T07:24:31;6.60;;;0.95;;
75932;SDS011;64803;52.356;5.310;2022-12-07T07:26:57;4.47;;;0.70;;
75932;SDS011;64803;52.356;5.310;2022-12-07T07:29:23;3.30;;;0.60;;
75932;SDS011;64803;52.356;5.310;2022-12-07T07:31:49;7.05;;;0.85;;
75932;SDS011;64803;52.356;5.310;2022-12-07T07:34:15;2.08;;;0.43;;
75932;SDS011;64803;52.356;5.310;2022-12-07T07:36:41;3.78;;;0.70;;
75932;SDS011;64803;52.356;5.310;2022-12-07T07:39:07;7.75;;;1.10;;
75932;SDS011;64803;52.356;5.310;2022-12-07T07:41:33;3.88;;;0.98;;
75932;SDS011;64803;52.356;5.310;2022-12-07T07:46:27;3.30;;;0.68;;
75932;SDS011;64803;52.356;5.310;2022-12-07T07:48:53;6.45;;;1.00;;
75932;SDS011;64803;52.356;5.310;2022-12-07T07:51:19;9.45;;;1.23;;
75932;SDS011;64803;52.356;5.310;2022-12-07T07:53:45;1.98;;;0.50;;
75932;SDS011;64803;52.356;5.310;2022-12-07T07:56:11;17.60;;;1.33;;
75932;SDS011;64803;52.356;5.310;2022-12-07T07:58:37;7.63;;;1.13;;
75932;SDS011;64803;52.356;5.310;2022-12-07T08:01:05;4.95;;;0.68;;
75932;SDS011;64803;52.356;5.310;2022-12-07T08:03:32;4.28;;;0.60;;
75932;SDS011;64803;52.356;5.310;2022-12-07T08:05:58;4.88;;;0.60;;
75932;SDS011;64803;52.356;5.310;2022-12-07T08:08:24;5.20;;;0.60;;
75932;SDS011;64803;52.356;5.310;2022-12-07T08:10:50;10.55;;;0.82;;
75932;SDS011;64803;52.356;5.310;2022-12-07T08:13:16;3.33;;;0.65;;
75932;SDS011;64803;52.356;5.310;2022-12-07T08:15:43;8.93;;;1.00;;
75932;SDS011;64803;52.356;5.310;2022-12-07T08:18:11;5.15;;;1.17;;
75932;SDS011;64803;52.356;5.310;2022-12-07T08:20:38;8.35;;;0.70;;
75932;SDS011;64803;52.356;5.310;2022-12-07T08:23:06;2.88;;;0.60;;
75932;SDS011;64803;52.356;5.310;2022-12-07T08:25:33;4.60;;;0.80;;
75932;SDS011;64803;52.356;5.310;2022-12-07T08:27:59;4.75;;;0.82;;
75932;SDS011;64803;52.356;5.310;2022-12-07T08:30:26;2.05;;;0.50;;
75932;SDS011;64803;52.356;5.310;2022-12-07T08:32:53;4.85;;;0.73;;
75932;SDS011;64803;52.356;5.310;2022-12-07T08:35:19;4.57;;;0.77;;
75932;SDS011;64803;52.356;5.310;2022-12-07T08:37:46;1.95;;;0.32;;
75932;SDS011;64803;52.356;5.310;2022-12-07T08:40:13;4.05;;;1.02;;
75932;SDS011;64803;52.356;5.310;2022-12-07T08:42:48;1.55;;;0.40;;
75932;SDS011;64803;52.356;5.310;2022-12-07T08:45:15;2.35;;;0.60;;
75932;SDS011;64803;52.356;5.310;2022-12-07T08:50:31;1.08;;;0.32;;
75932;SDS011;64803;52.356;5.310;2022-12-07T08:52:59;2.92;;;0.32;;
75932;SDS011;64803;52.356;5.310;2022-12-07T08:55:26;3.65;;;0.68;;
75932;SDS011;64803;52.356;5.310;2022-12-07T08:57:53;1.20;;;0.65;;
75932;SDS011;64803;52.356;5.310;2022-12-07T09:00:20;2.45;;;1.00;;
75932;SDS011;64803;52.356;5.310;2022-12-07T09:02:46;5.13;;;0.80;;
75932;SDS011;64803;52.356;5.310;2022-12-07T09:05:12;1.67;;;0.30;;
75932;SDS011;64803;52.356;5.310;2022-12-07T09:07:40;5.20;;;0.47;;
75932;SDS011;64803;52.356;5.310;2022-12-07T09:10:08;3.83;;;1.02;;
75932;SDS011;64803;52.356;5.310;2022-12-07T09:12:34;0.40;;;0.10;;
75932;SDS011;64803;52.356;5.310;2022-12-07T09:15:00;2.15;;;0.35;;
75932;SDS011;64803;52.356;5.310;2022-12-07T09:17:26;0.88;;;0.20;;
75932;SDS011;64803;52.356;5.310;2022-12-07T09:19:52;2.72;;;0.22;;
75932;SDS011;64803;52.356;5.310;2022-12-07T09:22:18;0.40;;;0.10;;
75932;SDS011;64803;52.356;5.310;2022-12-07T09:24:44;4.55;;;0.60;;
75932;SDS011;64803;52.356;5.310;2022-12-07T09:27:11;3.78;;;0.50;;
75932;SDS011;64803;52.356;5.310;2022-12-07T09:29:37;4.88;;;0.40;;
75932;SDS011;64803;52.356;5.310;2022-12-07T09:32:03;2.30;;;0.25;;
75932;SDS011;64803;52.356;5.310;2022-12-07T09:34:32;1.58;;;0.20;;
75932;SDS011;64803;52.356;5.310;2022-12-07T09:37:00;2.28;;;0.50;;
75932;SDS011;64803;52.356;5.310;2022-12-07T09:39:27;7.93;;;0.70;;
75932;SDS011;64803;52.356;5.310;2022-12-07T09:41:53;3.33;;;0.50;;
75932;SDS011;64803;52.356;5.310;2022-12-07T09:44:21;8.00;;;0.77;;
75932;SDS011;64803;52.356;5.310;2022-12-07T09:46:50;4.00;;;0.47;;
75932;SDS011;64803;52.356;5.310;2022-12-07T09:49:21;5.30;;;0.43;;
75932;SDS011;64803;52.356;5.310;2022-12-07T09:52:00;10.40;;;0.60;;
75932;SDS011;64803;52.356;5.310;2022-12-07T09:54:26;1.45;;;0.30;;
75932;SDS011;64803;52.356;5.310;2022-12-07T09:56:53;0.80;;;0.10;;
75932;SDS011;64803;52.356;5.310;2022-12-07T09:59:19;2.90;;;0.30;;
75932;SDS011;64803;52.356;5.310;2022-12-07T10:01:49;2.17;;;0.57;;
75932;SDS011;64803;52.356;5.310;2022-12-07T10:04:17;3.17;;;0.52;;
75932;SDS011;64803;52.356;5.310;2022-12-07T10:06:46;5.20;;;0.60;;
75932;SDS011;64803;52.356;5.310;2022-12-07T10:09:14;7.07;;;0.85;;
75932;SDS011;64803;52.356;5.310;2022-12-07T10:14:29;3.45;;;0.52;;
75932;SDS011;64803;52.356;5.310;2022-12-07T10:16:56;4.82;;;0.30;;
75932;SDS011;64803;52.356;5.310;2022-12-07T10:19:32;6.60;;;0.60;;
75932;SDS011;64803;52.356;5.310;2022-12-07T10:22:11;1.27;;;0.40;;
75932;SDS011;64803;52.356;5.310;2022-12-07T10:24:39;4.55;;;0.60;;
75932;SDS011;64803;52.356;5.310;2022-12-07T10:27:21;8.23;;;0.60;;
75932;SDS011;64803;52.356;5.310;2022-12-07T10:29:52;3.17;;;0.50;;
75932;SDS011;64803;52.356;5.310;2022-12-07T10:34:45;4.72;;;0.50;;
75932;SDS011;64803;52.356;5.310;2022-12-07T10:37:16;4.30;;;0.82;;
75932;SDS011;64803;52.356;5.310;2022-12-07T10:44:43;7.68;;;0.50;;
75932;SDS011;64803;52.356;5.310;2022-12-07T10:47:28;2.70;;;0.38;;
75932;SDS011;64803;52.356;5.310;2022-12-07T10:52:42;9.40;;;0.90;;
75932;SDS011;64803;52.356;5.310;2022-12-07T10:58:00;3.42;;;0.82;;
75932;SDS011;64803;52.356;5.310;2022-12-07T11:00:30;7.15;;;0.80;;
75932;SDS011;64803;52.356;5.310;2022-12-07T11:05:52;3.03;;;0.32;;
75932;SDS011;64803;52.356;5.310;2022-12-07T11:11:13;3.30;;;1.02;;
75932;SDS011;64803;52.356;5.310;2022-12-07T11:17:06;4.00;;;0.65;;
75932;SDS011;64803;52.356;5.310;2022-12-07T11:30:53;5.05;;;1.30;;
75932;SDS011;64803;52.356;5.310;2022-12-07T11:38:54;2.15;;;0.40;;
75932;SDS011;64803;52.356;5.310;2022-12-07T11:41:24;7.25;;;1.63;;
75932;SDS011;64803;52.356;5.310;2022-12-07T11:46:42;0.10;;;0.08;;
75932;SDS011;64803;52.356;5.310;2022-12-07T11:49:16;2.45;;;0.47;;
75932;SDS011;64803;52.356;5.310;2022-12-07T11:51:51;1.55;;;0.20;;
75932;SDS011;64803;52.356;5.310;2022-12-07T11:54:26;2.38;;;0.57;;
75932;SDS011;64803;52.356;5.310;2022-12-07T11:56:59;7.55;;;0.73;;
75932;SDS011;64803;52.356;5.310;2022-12-07T11:59:31;1.63;;;0.17;;
75932;SDS011;64803;52.356;5.310;2022-12-07T12:05:16;6.75;;;1.00;;
75932;SDS011;64803;52.356;5.310;2022-12-07T12:07:46;1.42;;;0.45;;
75932;SDS011;64803;52.356;5.310;2022-12-07T12:13:04;2.42;;;0.50;;
75932;SDS011;64803;52.356;5.310;2022-12-07T12:18:12;2.30;;;0.50;;
75932;SDS011;64803;52.356;5.310;2022-12-07T12:20:58;2.83;;;0.88;;
75932;SDS011;64803;52.356;5.310;2022-12-07T12:23:37;7.72;;;1.08;;
75932;SDS011;64803;52.356;5.310;2022-12-07T12:26:16;1.80;;;0.30;;
75932;SDS011;64803;52.356;5.310;2022-12-07T12:33:44;0.22;;;0.15;;
75932;SDS011;64803;52.356;5.310;2022-12-07T12:51:49;5.38;;;0.75;;
75932;SDS011;64803;52.356;5.310;2022-12-07T12:56:48;4.85;;;0.65;;
75932;SDS011;64803;52.356;5.310;2022-12-07T13:01:47;4.68;;;0.80;;
75932;SDS011;64803;52.356;5.310;2022-12-07T13:06:48;7.38;;;0.90;;
75932;SDS011;64803;52.356;5.310;2022-12-07T13:09:19;2.50;;;0.52;;
75932;SDS011;64803;52.356;5.310;2022-12-07T13:11:48;5.07;;;0.57;;
75932;SDS011;64803;52.356;5.310;2022-12-07T13:24:56;0.35;;;0.17;;
75932;SDS011;64803;52.356;5.310;2022-12-07T13:27:30;5.38;;;0.50;;
75932;SDS011;64803;52.356;5.310;2022-12-07T13:29:57;6.85;;;0.38;;
75932;SDS011;64803;52.356;5.310;2022-12-07T13:32:25;5.30;;;0.98;;
75932;SDS011;64803;52.356;5.310;2022-12-07T13:34:52;3.65;;;0.30;;
75932;SDS011;64803;52.356;5.310;2022-12-07T13:37:28;1.75;;;0.32;;
75932;SDS011;64803;52.356;5.310;2022-12-07T13:39:59;2.60;;;0.43;;
75932;SDS011;64803;52.356;5.310;2022-12-07T13:42:27;6.85;;;0.90;;
75932;SDS011;64803;52.356;5.310;2022-12-07T13:44:55;4.28;;;0.35;;
75932;SDS011;64803;52.356;5.310;2022-12-07T13:49:50;2.03;;;0.63;;
75932;SDS011;64803;52.356;5.310;2022-12-07T13:52:28;4.90;;;0.60;;
75932;SDS011;64803;52.356;5.310;2022-12-07T13:54:59;4.53;;;0.70;;
75932;SDS011;64803;52.356;5.310;2022-12-07T13:57:33;5.47;;;0.80;;
75932;SDS011;64803;52.356;5.310;2022-12-07T14:00:03;7.63;;;0.77;;
75932;SDS011;64803;52.356;5.310;2022-12-07T14:02:31;3.03;;;0.68;;
75932;SDS011;64803;52.356;5.310;2022-12-07T14:05:09;5.75;;;0.73;;
75932;SDS011;64803;52.356;5.310;2022-12-07T14:10:35;9.40;;;0.90;;
75932;SDS011;64803;52.356;5.310;2022-12-07T14:13:22;8.77;;;0.82;;
75932;SDS011;64803;52.356;5.310;2022-12-07T14:15:59;5.57;;;0.50;;
75932;SDS011;64803;52.356;5.310;2022-12-07T14:21:03;5.18;;;0.88;;
75932;SDS011;64803;52.356;5.310;2022-12-07T14:23:41;2.58;;;0.43;;
75932;SDS011;64803;52.356;5.310;2022-12-07T14:26:14;6.28;;;1.00;;
75932;SDS011;64803;52.356;5.310;2022-12-07T14:31:12;4.57;;;0.50;;
75932;SDS011;64803;52.356;5.310;2022-12-07T14:33:47;6.22;;;0.45;;
75932;SDS011;64803;52.356;5.310;2022-12-07T14:36:13;5.45;;;0.60;;
75932;SDS011;64803;52.356;5.310;2022-12-07T14:38:40;6.22;;;0.95;;
75932;SDS011;64803;52.356;5.310;2022-12-07T14:41:10;4.07;;;0.68;;
75932;SDS011;64803;52.356;5.310;2022-12-07T14:43:58;4.85;;;0.60;;
75932;SDS011;64803;52.356;5.310;2022-12-07T14:46:25;5.03;;;0.98;;
75932;SDS011;64803;52.356;5.310;2022-12-07T14:48:51;2.80;;;0.50;;
75932;SDS011;64803;52.356;5.310;2022-12-07T14:51:17;4.97;;;0.93;;
75932;SDS011;64803;52.356;5.310;2022-12-07T14:53:48;4.30;;;0.60;;
75932;SDS011;64803;52.356;5.310;2022-12-07T14:56:16;5.75;;;0.57;;
75932;SDS011;64803;52.356;5.310;2022-12-07T14:58:42;3.25;;;0.50;;
75932;SDS011;64803;52.356;5.310;2022-12-07T15:01:08;9.27;;;0.50;;
75932;SDS011;64803;52.356;5.310;2022-12-07T15:03:34;2.45;;;0.73;;
75932;SDS011;64803;52.356;5.310;2022-12-07T15:06:00;2.13;;;0.50;;
75932;SDS011;64803;52.356;5.310;2022-12-07T15:08:26;6.80;;;0.60;;
75932;SDS011;64803;52.356;5.310;2022-12-07T15:10:52;4.25;;;0.73;;
75932;SDS011;64803;52.356;5.310;2022-12-07T15:13:18;4.43;;;0.90;;
75932;SDS011;64803;52.356;5.310;2022-12-07T15:16:03;4.13;;;0.38;;
75932;SDS011;64803;52.356;5.310;2022-12-07T15:18:29;4.38;;;0.57;;
75932;SDS011;64803;52.356;5.310;2022-12-07T15:20:55;4.93;;;0.85;;
75932;SDS011;64803;52.356;5.310;2022-12-07T15:23:21;2.83;;;0.25;;
75932;SDS011;64803;52.356;5.310;2022-12-07T15:25:47;3.85;;;0.50;;
75932;SDS011;64803;52.356;5.310;2022-12-07T15:28:14;7.97;;;0.95;;
75932;SDS011;64803;52.356;5.310;2022-12-07T15:30:41;4.60;;;0.63;;
75932;SDS011;64803;52.356;5.310;2022-12-07T15:33:11;2.95;;;0.55;;
75932;SDS011;64803;52.356;5.310;2022-12-07T15:35:44;2.75;;;0.60;;
75932;SDS011;64803;52.356;5.310;2022-12-07T15:38:10;6.75;;;0.60;;
75932;SDS011;64803;52.356;5.310;2022-12-07T15:40:37;4.45;;;0.70;;
75932;SDS011;64803;52.356;5.310;2022-12-07T15:43:03;2.70;;;0.40;;
75932;SDS011;64803;52.356;5.310;2022-12-07T15:45:30;1.55;;;0.45;;
75932;SDS011;64803;52.356;5.310;2022-12-07T15:47:56;5.78;;;0.70;;
75932;SDS011;64803;52.356;5.310;2022-12-07T15:50:22;2.95;;;0.60;;
75932;SDS011;64803;52.356;5.310;2022-12-07T15:52:48;6.82;;;1.20;;
75932;SDS011;64803;52.356;5.310;2022-12-07T15:55:14;7.90;;;1.05;;
75932;SDS011;64803;52.356;5.310;2022-12-07T15:57:40;4.93;;;0.90;;
75932;SDS011;64803;52.356;5.310;2022-12-07T16:00:07;7.45;;;1.42;;
75932;SDS011;64803;52.356;5.310;2022-12-07T16:05:02;6.65;;;1.17;;
75932;SDS011;64803;52.356;5.310;2022-12-07T16:07:28;8.50;;;1.40;;
75932;SDS011;64803;52.356;5.310;2022-12-07T16:09:54;6.97;;;1.35;;
75932;SDS011;64803;52.356;5.310;2022-12-07T16:12:20;7.50;;;1.73;;
75932;SDS011;64803;52.356;5.310;2022-12-07T16:14:46;6.40;;;1.23;;
75932;SDS011;64803;52.356;5.310;2022-12-07T16:17:12;10.35;;;1.50;;
75932;SDS011;64803;52.356;5.310;2022-12-07T16:19:38;7.18;;;1.63;;
75932;SDS011;64803;52.356;5.310;2022-12-07T16:22:04;6.70;;;1.77;;
75932;SDS011;64803;52.356;5.310;2022-12-07T16:24:31;5.97;;;1.83;;
75932;SDS011;64803;52.356;5.310;2022-12-07T16:26:57;9.40;;;3.90;;
75932;SDS011;64803;52.356;5.310;2022-12-07T16:29:23;9.57;;;2.17;;
75932;SDS011;64803;52.356;5.310;2022-12-07T16:31:49;9.38;;;2.03;;
75932;SDS011;64803;52.356;5.310;2022-12-07T16:34:17;7.10;;;1.83;;
75932;SDS011;64803;52.356;5.310;2022-12-07T16:36:43;9.88;;;2.20;;
75932;SDS011;64803;52.356;5.310;2022-12-07T16:39:09;4.65;;;1.45;;
75932;SDS011;64803;52.356;5.310;2022-12-07T16:41:35;12.30;;;4.10;;
75932;SDS011;64803;52.356;5.310;2022-12-07T16:44:03;9.48;;;3.22;;
75932;SDS011;64803;52.356;5.310;2022-12-07T16:46:31;8.57;;;2.45;;
75932;SDS011;64803;52.356;5.310;2022-12-07T16:48:59;6.68;;;2.22;;
75932;SDS011;64803;52.356;5.310;2022-12-07T16:51:25;10.05;;;2.67;;
75932;SDS011;64803;52.356;5.310;2022-12-07T16:53:52;8.00;;;1.85;;
75932;SDS011;64803;52.356;5.310;2022-12-07T16:56:18;4.20;;;1.17;;
75932;SDS011;64803;52.356;5.310;2022-12-07T16:58:44;6.32;;;1.02;;
75932;SDS011;64803;52.356;5.310;2022-12-07T17:01:12;6.70;;;0.88;;
75932;SDS011;64803;52.356;5.310;2022-12-07T17:03:43;4.63;;;1.17;;
75932;SDS011;64803;52.356;5.310;2022-12-07T17:06:16;6.90;;;0.95;;
75932;SDS011;64803;52.356;5.310;2022-12-07T17:08:47;2.95;;;0.73;;
75932;SDS011;64803;52.356;5.310;2022-12-07T17:11:24;6.13;;;1.40;;
75932;SDS011;64803;52.356;5.310;2022-12-07T17:13:52;11.57;;;3.30;;
75932;SDS011;64803;52.356;5.310;2022-12-07T17:16:37;9.32;;;2.55;;
75932;SDS011;64803;52.356;5.310;2022-12-07T17:19:04;8.27;;;1.98;;
75932;SDS011;64803;52.356;5.310;2022-12-07T17:21:35;9.45;;;1.73;;